Fleming Neon, Kentucky
Current Conditions -  °F | °C
As of 6:55 AM on Thursday 29 Jan 2015 (Local Time) from KLNP Reporting Station
Clear Clear  
Wind Chill: 29°   Ceiling: Unl
Heat Index: 36°   Visibility: 10mi
Dew Point: 14°   Wind: 9mph
Humidity: 41%   Direction: 200°SSW
Pressure: 30.11"   Gusts: NA
Location:  37.216°N, 82.7112°W
Report Text: KLNP 291155Z AUTO 20008KT 10SM CLR 02/M10 A3011 RMK AO2
Loading
Personal Weather Stations






























Interactive Weather Map New forecast layout! Learn more

10-Day Weather Forecast

Advertisements
Track Severe Weather on mobile